sensor_id;sensor_type;location;lat;lon;timestamp;P1;durP1;ratioP1;P2;durP2;ratioP2
70505;SDS011;58032;49.820;6.274;2023-04-06T00:01:11;12.25;;;3.88;;
70505;SDS011;58032;49.820;6.274;2023-04-06T00:03:38;11.00;;;4.00;;
70505;SDS011;58032;49.820;6.274;2023-04-06T00:06:05;11.73;;;4.22;;
70505;SDS011;58032;49.820;6.274;2023-04-06T00:08:32;15.13;;;5.28;;
70505;SDS011;58032;49.820;6.274;2023-04-06T00:10:59;10.87;;;4.20;;
70505;SDS011;58032;49.820;6.274;2023-04-06T00:13:27;10.10;;;4.15;;
70505;SDS011;58032;49.820;6.274;2023-04-06T00:15:54;12.05;;;4.53;;
70505;SDS011;58032;49.820;6.274;2023-04-06T00:18:21;12.50;;;4.40;;
70505;SDS011;58032;49.820;6.274;2023-04-06T00:20:49;14.32;;;4.22;;
70505;SDS011;58032;49.820;6.274;2023-04-06T00:23:17;9.90;;;4.33;;
70505;SDS011;58032;49.820;6.274;2023-04-06T00:25:44;11.45;;;4.43;;
70505;SDS011;58032;49.820;6.274;2023-04-06T00:28:11;9.65;;;4.22;;
70505;SDS011;58032;49.820;6.274;2023-04-06T00:30:38;10.73;;;4.38;;
70505;SDS011;58032;49.820;6.274;2023-04-06T00:33:07;8.25;;;3.67;;
70505;SDS011;58032;49.820;6.274;2023-04-06T00:35:34;10.83;;;4.13;;
70505;SDS011;58032;49.820;6.274;2023-04-06T00:38:01;11.07;;;3.78;;
70505;SDS011;58032;49.820;6.274;2023-04-06T00:40:28;10.98;;;3.88;;
70505;SDS011;58032;49.820;6.274;2023-04-06T00:42:55;9.15;;;3.53;;
70505;SDS011;58032;49.820;6.274;2023-04-06T00:45:22;10.27;;;3.50;;
70505;SDS011;58032;49.820;6.274;2023-04-06T00:47:49;11.63;;;3.87;;
70505;SDS011;58032;49.820;6.274;2023-04-06T00:50:16;11.10;;;4.63;;
70505;SDS011;58032;49.820;6.274;2023-04-06T00:52:44;11.32;;;4.18;;
70505;SDS011;58032;49.820;6.274;2023-04-06T00:55:11;9.52;;;3.97;;
70505;SDS011;58032;49.820;6.274;2023-04-06T00:57:41;10.75;;;4.15;;
70505;SDS011;58032;49.820;6.274;2023-04-06T01:00:08;13.03;;;4.63;;
70505;SDS011;58032;49.820;6.274;2023-04-06T01:02:37;12.18;;;4.55;;
70505;SDS011;58032;49.820;6.274;2023-04-06T01:05:04;10.85;;;3.97;;
70505;SDS011;58032;49.820;6.274;2023-04-06T01:07:42;10.32;;;4.13;;
70505;SDS011;58032;49.820;6.274;2023-04-06T01:10:23;11.27;;;4.53;;
70505;SDS011;58032;49.820;6.274;2023-04-06T01:13:00;8.93;;;3.80;;
70505;SDS011;58032;49.820;6.274;2023-04-06T01:15:57;11.20;;;4.40;;
70505;SDS011;58032;49.820;6.274;2023-04-06T01:18:31;11.55;;;4.82;;
70505;SDS011;58032;49.820;6.274;2023-04-06T01:21:24;8.40;;;3.47;;
70505;SDS011;58032;49.820;6.274;2023-04-06T01:24:09;11.15;;;4.15;;
70505;SDS011;58032;49.820;6.274;2023-04-06T01:27:02;9.07;;;3.30;;
70505;SDS011;58032;49.820;6.274;2023-04-06T01:29:43;10.38;;;3.33;;
70505;SDS011;58032;49.820;6.274;2023-04-06T01:32:31;11.48;;;3.85;;
70505;SDS011;58032;49.820;6.274;2023-04-06T01:34:58;10.23;;;4.05;;
70505;SDS011;58032;49.820;6.274;2023-04-06T01:37:25;11.20;;;4.18;;
70505;SDS011;58032;49.820;6.274;2023-04-06T01:39:55;12.10;;;4.47;;
70505;SDS011;58032;49.820;6.274;2023-04-06T01:42:36;10.55;;;4.45;;
70505;SDS011;58032;49.820;6.274;2023-04-06T01:45:03;10.13;;;4.95;;
70505;SDS011;58032;49.820;6.274;2023-04-06T01:47:31;15.85;;;7.05;;
70505;SDS011;58032;49.820;6.274;2023-04-06T01:49:58;14.15;;;5.60;;
70505;SDS011;58032;49.820;6.274;2023-04-06T01:52:26;11.80;;;5.23;;
70505;SDS011;58032;49.820;6.274;2023-04-06T01:54:54;10.88;;;4.43;;
70505;SDS011;58032;49.820;6.274;2023-04-06T01:57:37;12.25;;;4.57;;
70505;SDS011;58032;49.820;6.274;2023-04-06T02:00:12;11.40;;;4.55;;
70505;SDS011;58032;49.820;6.274;2023-04-06T02:02:39;13.55;;;4.95;;
70505;SDS011;58032;49.820;6.274;2023-04-06T02:05:13;13.97;;;4.83;;
70505;SDS011;58032;49.820;6.274;2023-04-06T02:07:40;11.63;;;5.10;;
70505;SDS011;58032;49.820;6.274;2023-04-06T02:10:11;13.85;;;5.07;;
70505;SDS011;58032;49.820;6.274;2023-04-06T02:12:39;11.07;;;4.63;;
70505;SDS011;58032;49.820;6.274;2023-04-06T02:15:09;14.38;;;5.05;;
70505;SDS011;58032;49.820;6.274;2023-04-06T02:17:40;12.70;;;4.77;;
70505;SDS011;58032;49.820;6.274;2023-04-06T02:20:09;11.07;;;3.47;;
70505;SDS011;58032;49.820;6.274;2023-04-06T02:22:36;9.68;;;3.78;;
70505;SDS011;58032;49.820;6.274;2023-04-06T02:25:03;13.40;;;4.80;;
70505;SDS011;58032;49.820;6.274;2023-04-06T02:27:30;10.63;;;4.32;;
70505;SDS011;58032;49.820;6.274;2023-04-06T02:29:57;11.30;;;4.63;;
70505;SDS011;58032;49.820;6.274;2023-04-06T02:32:24;8.73;;;3.85;;
70505;SDS011;58032;49.820;6.274;2023-04-06T02:34:52;14.35;;;4.47;;
70505;SDS011;58032;49.820;6.274;2023-04-06T02:37:20;14.23;;;4.57;;
70505;SDS011;58032;49.820;6.274;2023-04-06T02:39:48;11.35;;;4.82;;
70505;SDS011;58032;49.820;6.274;2023-04-06T02:42:15;16.00;;;4.00;;
70505;SDS011;58032;49.820;6.274;2023-04-06T02:44:44;9.88;;;3.85;;
70505;SDS011;58032;49.820;6.274;2023-04-06T02:47:11;11.68;;;4.47;;
70505;SDS011;58032;49.820;6.274;2023-04-06T02:49:41;12.68;;;3.83;;
70505;SDS011;58032;49.820;6.274;2023-04-06T02:52:08;14.50;;;4.65;;
70505;SDS011;58032;49.820;6.274;2023-04-06T02:54:35;11.53;;;3.87;;
70505;SDS011;58032;49.820;6.274;2023-04-06T02:57:03;9.80;;;4.03;;
70505;SDS011;58032;49.820;6.274;2023-04-06T02:59:38;11.98;;;4.45;;
70505;SDS011;58032;49.820;6.274;2023-04-06T03:02:28;11.13;;;3.97;;
70505;SDS011;58032;49.820;6.274;2023-04-06T03:05:03;11.13;;;3.95;;
70505;SDS011;58032;49.820;6.274;2023-04-06T03:07:35;10.50;;;4.37;;
70505;SDS011;58032;49.820;6.274;2023-04-06T03:10:02;10.73;;;4.07;;
70505;SDS011;58032;49.820;6.274;2023-04-06T03:12:30;10.82;;;4.18;;
70505;SDS011;58032;49.820;6.274;2023-04-06T03:15:27;16.05;;;7.03;;
70505;SDS011;58032;49.820;6.274;2023-04-06T03:18:03;10.15;;;4.70;;
70505;SDS011;58032;49.820;6.274;2023-04-06T03:20:35;15.23;;;7.00;;
70505;SDS011;58032;49.820;6.274;2023-04-06T03:23:02;17.25;;;7.05;;
70505;SDS011;58032;49.820;6.274;2023-04-06T03:25:34;12.68;;;4.13;;
70505;SDS011;58032;49.820;6.274;2023-04-06T03:28:04;10.45;;;4.13;;
70505;SDS011;58032;49.820;6.274;2023-04-06T03:30:36;10.25;;;4.10;;
70505;SDS011;58032;49.820;6.274;2023-04-06T03:33:04;9.87;;;4.27;;
70505;SDS011;58032;49.820;6.274;2023-04-06T03:35:37;10.30;;;4.03;;
70505;SDS011;58032;49.820;6.274;2023-04-06T03:38:04;11.52;;;4.78;;
70505;SDS011;58032;49.820;6.274;2023-04-06T03:40:31;8.13;;;3.80;;
70505;SDS011;58032;49.820;6.274;2023-04-06T03:42:58;10.55;;;3.63;;
70505;SDS011;58032;49.820;6.274;2023-04-06T03:45:25;11.63;;;4.03;;
70505;SDS011;58032;49.820;6.274;2023-04-06T03:47:52;8.68;;;4.05;;
70505;SDS011;58032;49.820;6.274;2023-04-06T03:50:20;12.73;;;4.50;;
70505;SDS011;58032;49.820;6.274;2023-04-06T03:52:46;15.60;;;5.38;;
70505;SDS011;58032;49.820;6.274;2023-04-06T03:55:13;14.85;;;4.53;;
70505;SDS011;58032;49.820;6.274;2023-04-06T03:57:40;10.73;;;4.70;;
70505;SDS011;58032;49.820;6.274;2023-04-06T04:00:08;13.27;;;4.75;;
70505;SDS011;58032;49.820;6.274;2023-04-06T04:02:38;14.60;;;4.50;;
70505;SDS011;58032;49.820;6.274;2023-04-06T04:05:06;13.82;;;4.35;;
70505;SDS011;58032;49.820;6.274;2023-04-06T04:07:33;12.98;;;4.93;;
70505;SDS011;58032;49.820;6.274;2023-04-06T04:10:00;12.40;;;4.30;;
70505;SDS011;58032;49.820;6.274;2023-04-06T04:12:28;11.48;;;4.35;;
70505;SDS011;58032;49.820;6.274;2023-04-06T04:14:57;15.43;;;5.32;;
70505;SDS011;58032;49.820;6.274;2023-04-06T04:17:24;11.98;;;4.85;;
70505;SDS011;58032;49.820;6.274;2023-04-06T04:19:51;13.52;;;4.32;;
70505;SDS011;58032;49.820;6.274;2023-04-06T04:22:18;11.97;;;3.93;;
70505;SDS011;58032;49.820;6.274;2023-04-06T04:24:45;8.50;;;3.50;;
70505;SDS011;58032;49.820;6.274;2023-04-06T04:27:12;9.43;;;3.60;;
70505;SDS011;58032;49.820;6.274;2023-04-06T04:29:40;12.45;;;4.75;;
70505;SDS011;58032;49.820;6.274;2023-04-06T04:32:10;9.50;;;3.90;;
70505;SDS011;58032;49.820;6.274;2023-04-06T04:34:37;13.93;;;4.33;;
70505;SDS011;58032;49.820;6.274;2023-04-06T04:37:10;13.57;;;5.32;;
70505;SDS011;58032;49.820;6.274;2023-04-06T04:39:46;12.85;;;4.93;;
70505;SDS011;58032;49.820;6.274;2023-04-06T04:42:14;11.95;;;4.32;;
70505;SDS011;58032;49.820;6.274;2023-04-06T04:44:46;12.35;;;4.80;;
70505;SDS011;58032;49.820;6.274;2023-04-06T04:47:18;14.70;;;4.53;;
70505;SDS011;58032;49.820;6.274;2023-04-06T04:49:47;12.70;;;4.40;;
70505;SDS011;58032;49.820;6.274;2023-04-06T04:52:19;10.32;;;4.32;;
70505;SDS011;58032;49.820;6.274;2023-04-06T04:54:57;17.92;;;5.70;;
70505;SDS011;58032;49.820;6.274;2023-04-06T04:57:27;9.88;;;4.03;;
70505;SDS011;58032;49.820;6.274;2023-04-06T04:59:54;13.20;;;4.80;;
70505;SDS011;58032;49.820;6.274;2023-04-06T05:02:22;14.18;;;5.00;;
70505;SDS011;58032;49.820;6.274;2023-04-06T05:05:18;12.40;;;4.95;;
70505;SDS011;58032;49.820;6.274;2023-04-06T05:07:45;12.55;;;5.45;;
70505;SDS011;58032;49.820;6.274;2023-04-06T05:10:22;11.93;;;4.47;;
70505;SDS011;58032;49.820;6.274;2023-04-06T05:12:54;10.10;;;3.70;;
70505;SDS011;58032;49.820;6.274;2023-04-06T05:15:21;12.68;;;4.57;;
70505;SDS011;58032;49.820;6.274;2023-04-06T05:17:52;14.15;;;4.90;;
70505;SDS011;58032;49.820;6.274;2023-04-06T05:20:24;11.90;;;4.82;;
70505;SDS011;58032;49.820;6.274;2023-04-06T05:22:51;12.35;;;4.93;;
70505;SDS011;58032;49.820;6.274;2023-04-06T05:25:19;12.67;;;5.07;;
70505;SDS011;58032;49.820;6.274;2023-04-06T05:27:49;14.02;;;4.93;;
70505;SDS011;58032;49.820;6.274;2023-04-06T05:30:29;13.60;;;5.32;;
70505;SDS011;58032;49.820;6.274;2023-04-06T05:32:57;14.80;;;5.53;;
70505;SDS011;58032;49.820;6.274;2023-04-06T05:35:29;11.00;;;4.43;;
70505;SDS011;58032;49.820;6.274;2023-04-06T05:38:01;10.40;;;4.80;;
70505;SDS011;58032;49.820;6.274;2023-04-06T05:40:28;15.70;;;4.60;;
70505;SDS011;58032;49.820;6.274;2023-04-06T05:42:55;13.57;;;4.75;;
70505;SDS011;58032;49.820;6.274;2023-04-06T05:45:22;12.65;;;4.68;;
70505;SDS011;58032;49.820;6.274;2023-04-06T05:47:53;11.52;;;4.78;;
70505;SDS011;58032;49.820;6.274;2023-04-06T05:50:27;9.77;;;4.13;;
70505;SDS011;58032;49.820;6.274;2023-04-06T05:52:55;12.07;;;4.28;;
70505;SDS011;58032;49.820;6.274;2023-04-06T05:55:26;15.38;;;5.45;;
70505;SDS011;58032;49.820;6.274;2023-04-06T05:58:06;13.90;;;5.15;;
70505;SDS011;58032;49.820;6.274;2023-04-06T06:00:33;16.02;;;5.60;;
70505;SDS011;58032;49.820;6.274;2023-04-06T06:03:04;15.13;;;5.63;;
70505;SDS011;58032;49.820;6.274;2023-04-06T06:05:33;13.13;;;5.95;;
70505;SDS011;58032;49.820;6.274;2023-04-06T06:08:09;13.02;;;5.05;;
70505;SDS011;58032;49.820;6.274;2023-04-06T06:10:37;17.05;;;5.88;;
70505;SDS011;58032;49.820;6.274;2023-04-06T06:13:06;13.13;;;5.65;;
70505;SDS011;58032;49.820;6.274;2023-04-06T06:15:33;12.53;;;5.70;;
70505;SDS011;58032;49.820;6.274;2023-04-06T06:18:01;12.63;;;4.82;;
70505;SDS011;58032;49.820;6.274;2023-04-06T06:20:29;14.20;;;5.90;;
70505;SDS011;58032;49.820;6.274;2023-04-06T06:23:00;16.45;;;5.90;;
70505;SDS011;58032;49.820;6.274;2023-04-06T06:25:27;15.52;;;5.78;;
70505;SDS011;58032;49.820;6.274;2023-04-06T06:27:54;15.50;;;6.83;;
70505;SDS011;58032;49.820;6.274;2023-04-06T06:30:21;16.63;;;7.00;;
70505;SDS011;58032;49.820;6.274;2023-04-06T06:32:49;14.23;;;6.85;;
70505;SDS011;58032;49.820;6.274;2023-04-06T06:35:17;13.75;;;5.80;;
70505;SDS011;58032;49.820;6.274;2023-04-06T06:37:45;13.35;;;5.65;;
70505;SDS011;58032;49.820;6.274;2023-04-06T06:40:16;11.83;;;5.17;;
70505;SDS011;58032;49.820;6.274;2023-04-06T06:42:46;11.27;;;5.03;;
70505;SDS011;58032;49.820;6.274;2023-04-06T06:45:23;15.45;;;5.68;;
70505;SDS011;58032;49.820;6.274;2023-04-06T06:47:51;13.68;;;5.68;;
70505;SDS011;58032;49.820;6.274;2023-04-06T06:50:20;14.05;;;5.60;;
70505;SDS011;58032;49.820;6.274;2023-04-06T06:52:47;12.57;;;5.90;;
70505;SDS011;58032;49.820;6.274;2023-04-06T06:55:14;14.18;;;5.93;;
70505;SDS011;58032;49.820;6.274;2023-04-06T06:57:41;13.55;;;6.82;;
70505;SDS011;58032;49.820;6.274;2023-04-06T07:00:09;16.27;;;6.40;;
70505;SDS011;58032;49.820;6.274;2023-04-06T07:02:39;13.38;;;6.47;;
70505;SDS011;58032;49.820;6.274;2023-04-06T07:05:06;14.07;;;6.17;;
70505;SDS011;58032;49.820;6.274;2023-04-06T07:07:38;15.73;;;6.00;;
70505;SDS011;58032;49.820;6.274;2023-04-06T07:10:06;20.27;;;6.95;;
70505;SDS011;58032;49.820;6.274;2023-04-06T07:12:37;13.48;;;6.13;;
70505;SDS011;58032;49.820;6.274;2023-04-06T07:15:04;14.77;;;5.90;;
70505;SDS011;58032;49.820;6.274;2023-04-06T07:17:33;13.20;;;6.07;;
70505;SDS011;58032;49.820;6.274;2023-04-06T07:20:00;14.10;;;5.90;;
70505;SDS011;58032;49.820;6.274;2023-04-06T07:22:27;15.77;;;6.40;;
70505;SDS011;58032;49.820;6.274;2023-04-06T07:24:54;13.18;;;6.10;;
70505;SDS011;58032;49.820;6.274;2023-04-06T07:27:21;12.90;;;5.70;;
70505;SDS011;58032;49.820;6.274;2023-04-06T07:29:48;10.90;;;5.43;;
70505;SDS011;58032;49.820;6.274;2023-04-06T07:32:15;13.93;;;5.78;;
70505;SDS011;58032;49.820;6.274;2023-04-06T07:34:42;13.68;;;5.82;;
70505;SDS011;58032;49.820;6.274;2023-04-06T07:37:11;12.15;;;6.07;;
70505;SDS011;58032;49.820;6.274;2023-04-06T07:39:38;16.80;;;6.15;;
70505;SDS011;58032;49.820;6.274;2023-04-06T07:42:05;12.20;;;5.80;;
70505;SDS011;58032;49.820;6.274;2023-04-06T07:44:32;13.73;;;5.70;;
70505;SDS011;58032;49.820;6.274;2023-04-06T07:46:59;15.20;;;6.15;;
70505;SDS011;58032;49.820;6.274;2023-04-06T07:49:27;14.25;;;5.50;;
70505;SDS011;58032;49.820;6.274;2023-04-06T07:51:54;11.85;;;5.82;;
70505;SDS011;58032;49.820;6.274;2023-04-06T07:54:21;15.17;;;5.93;;
70505;SDS011;58032;49.820;6.274;2023-04-06T07:56:48;10.07;;;4.43;;
70505;SDS011;58032;49.820;6.274;2023-04-06T07:59:15;10.23;;;5.22;;
70505;SDS011;58032;49.820;6.274;2023-04-06T08:01:42;14.05;;;5.65;;
70505;SDS011;58032;49.820;6.274;2023-04-06T08:04:09;10.18;;;4.55;;
70505;SDS011;58032;49.820;6.274;2023-04-06T08:06:36;12.23;;;5.67;;
70505;SDS011;58032;49.820;6.274;2023-04-06T08:09:03;12.00;;;5.63;;
70505;SDS011;58032;49.820;6.274;2023-04-06T08:11:30;14.38;;;6.13;;
70505;SDS011;58032;49.820;6.274;2023-04-06T08:13:57;14.38;;;5.68;;
70505;SDS011;58032;49.820;6.274;2023-04-06T08:16:24;11.52;;;6.28;;
70505;SDS011;58032;49.820;6.274;2023-04-06T08:18:51;12.63;;;5.47;;
70505;SDS011;58032;49.820;6.274;2023-04-06T08:21:18;11.02;;;4.95;;
70505;SDS011;58032;49.820;6.274;2023-04-06T08:23:45;11.40;;;5.47;;
70505;SDS011;58032;49.820;6.274;2023-04-06T08:26:14;12.88;;;5.90;;
70505;SDS011;58032;49.820;6.274;2023-04-06T08:28:41;12.30;;;6.05;;
70505;SDS011;58032;49.820;6.274;2023-04-06T08:31:09;11.13;;;5.43;;
70505;SDS011;58032;49.820;6.274;2023-04-06T08:33:36;11.32;;;5.28;;
70505;SDS011;58032;49.820;6.274;2023-04-06T08:36:12;13.05;;;5.35;;
70505;SDS011;58032;49.820;6.274;2023-04-06T08:38:41;15.40;;;6.27;;
70505;SDS011;58032;49.820;6.274;2023-04-06T08:41:12;11.77;;;5.32;;
70505;SDS011;58032;49.820;6.274;2023-04-06T08:43:43;15.13;;;5.55;;
70505;SDS011;58032;49.820;6.274;2023-04-06T08:46:13;13.40;;;5.20;;
70505;SDS011;58032;49.820;6.274;2023-04-06T08:48:41;10.32;;;4.97;;
70505;SDS011;58032;49.820;6.274;2023-04-06T08:51:09;10.53;;;5.03;;
70505;SDS011;58032;49.820;6.274;2023-04-06T08:53:37;13.43;;;5.63;;
70505;SDS011;58032;49.820;6.274;2023-04-06T08:56:04;10.95;;;5.22;;
70505;SDS011;58032;49.820;6.274;2023-04-06T08:58:35;11.63;;;5.55;;
70505;SDS011;58032;49.820;6.274;2023-04-06T09:01:09;9.25;;;3.97;;
70505;SDS011;58032;49.820;6.274;2023-04-06T09:03:39;12.83;;;5.47;;
70505;SDS011;58032;49.820;6.274;2023-04-06T09:06:07;12.23;;;5.60;;
70505;SDS011;58032;49.820;6.274;2023-04-06T09:08:35;15.38;;;5.93;;
70505;SDS011;58032;49.820;6.274;2023-04-06T09:11:05;11.68;;;4.50;;
70505;SDS011;58032;49.820;6.274;2023-04-06T09:13:46;12.20;;;4.85;;
70505;SDS011;58032;49.820;6.274;2023-04-06T09:16:14;14.97;;;5.00;;
70505;SDS011;58032;49.820;6.274;2023-04-06T09:18:41;14.13;;;5.05;;
70505;SDS011;58032;49.820;6.274;2023-04-06T09:21:09;12.38;;;5.00;;
70505;SDS011;58032;49.820;6.274;2023-04-06T09:23:37;11.23;;;5.05;;
70505;SDS011;58032;49.820;6.274;2023-04-06T09:26:05;11.32;;;4.07;;
70505;SDS011;58032;49.820;6.274;2023-04-06T09:28:48;13.03;;;4.93;;
70505;SDS011;58032;49.820;6.274;2023-04-06T09:31:24;11.80;;;4.50;;
70505;SDS011;58032;49.820;6.274;2023-04-06T09:33:53;15.38;;;5.22;;
70505;SDS011;58032;49.820;6.274;2023-04-06T09:36:31;15.77;;;5.00;;
70505;SDS011;58032;49.820;6.274;2023-04-06T09:39:01;11.75;;;4.95;;
70505;SDS011;58032;49.820;6.274;2023-04-06T09:41:30;11.00;;;5.20;;
70505;SDS011;58032;49.820;6.274;2023-04-06T09:46:36;12.65;;;5.05;;
70505;SDS011;58032;49.820;6.274;2023-04-06T09:49:21;10.00;;;4.72;;
70505;SDS011;58032;49.820;6.274;2023-04-06T09:51:53;10.82;;;4.50;;
70505;SDS011;58032;49.820;6.274;2023-04-06T09:54:22;12.47;;;4.90;;
70505;SDS011;58032;49.820;6.274;2023-04-06T09:56:56;8.43;;;3.75;;
70505;SDS011;58032;49.820;6.274;2023-04-06T10:01:58;12.25;;;5.10;;
70505;SDS011;58032;49.820;6.274;2023-04-06T10:04:37;12.73;;;4.53;;
70505;SDS011;58032;49.820;6.274;2023-04-06T10:07:09;10.80;;;4.00;;
70505;SDS011;58032;49.820;6.274;2023-04-06T10:09:42;12.40;;;5.05;;
70505;SDS011;58032;49.820;6.274;2023-04-06T10:12:15;12.73;;;4.60;;
70505;SDS011;58032;49.820;6.274;2023-04-06T10:14:43;11.15;;;4.80;;
70505;SDS011;58032;49.820;6.274;2023-04-06T10:17:11;10.75;;;4.47;;
70505;SDS011;58032;49.820;6.274;2023-04-06T10:25:33;11.52;;;4.57;;
70505;SDS011;58032;49.820;6.274;2023-04-06T10:30:28;11.13;;;5.35;;
70505;SDS011;58032;49.820;6.274;2023-04-06T10:32:56;10.63;;;4.37;;
70505;SDS011;58032;49.820;6.274;2023-04-06T10:35:23;15.30;;;6.05;;
70505;SDS011;58032;49.820;6.274;2023-04-06T10:37:51;12.32;;;5.50;;
70505;SDS011;58032;49.820;6.274;2023-04-06T10:40:23;12.98;;;4.95;;
70505;SDS011;58032;49.820;6.274;2023-04-06T10:42:53;11.95;;;4.57;;
70505;SDS011;58032;49.820;6.274;2023-04-06T10:45:22;10.87;;;4.77;;
70505;SDS011;58032;49.820;6.274;2023-04-06T10:47:52;13.38;;;4.85;;
70505;SDS011;58032;49.820;6.274;2023-04-06T10:50:20;11.40;;;5.15;;
70505;SDS011;58032;49.820;6.274;2023-04-06T10:53:02;14.20;;;5.28;;
70505;SDS011;58032;49.820;6.274;2023-04-06T10:55:31;13.25;;;5.55;;
70505;SDS011;58032;49.820;6.274;2023-04-06T10:57:59;14.33;;;5.10;;
70505;SDS011;58032;49.820;6.274;2023-04-06T11:00:32;13.40;;;5.45;;
70505;SDS011;58032;49.820;6.274;2023-04-06T11:03:15;10.30;;;4.75;;
70505;SDS011;58032;49.820;6.274;2023-04-06T11:05:48;11.73;;;5.28;;
70505;SDS011;58032;49.820;6.274;2023-04-06T11:08:29;10.63;;;5.03;;
70505;SDS011;58032;49.820;6.274;2023-04-06T11:11:04;12.57;;;5.00;;
70505;SDS011;58032;49.820;6.274;2023-04-06T11:16:14;12.65;;;5.00;;
70505;SDS011;58032;49.820;6.274;2023-04-06T11:18:47;10.02;;;5.40;;
70505;SDS011;58032;49.820;6.274;2023-04-06T11:21:13;11.50;;;4.95;;
70505;SDS011;58032;49.820;6.274;2023-04-06T11:23:40;9.07;;;4.33;;
70505;SDS011;58032;49.820;6.274;2023-04-06T11:26:11;10.93;;;4.93;;
70505;SDS011;58032;49.820;6.274;2023-04-06T11:28:41;9.88;;;4.43;;
70505;SDS011;58032;49.820;6.274;2023-04-06T11:31:10;10.10;;;4.45;;
70505;SDS011;58032;49.820;6.274;2023-04-06T11:33:38;10.60;;;4.88;;
70505;SDS011;58032;49.820;6.274;2023-04-06T11:36:05;10.57;;;4.83;;
70505;SDS011;58032;49.820;6.274;2023-04-06T11:38:38;11.10;;;5.28;;
70505;SDS011;58032;49.820;6.274;2023-04-06T11:41:06;9.63;;;4.72;;
70505;SDS011;58032;49.820;6.274;2023-04-06T11:43:33;11.38;;;4.60;;
70505;SDS011;58032;49.820;6.274;2023-04-06T11:46:00;10.65;;;4.70;;
70505;SDS011;58032;49.820;6.274;2023-04-06T11:48:29;8.67;;;4.13;;
70505;SDS011;58032;49.820;6.274;2023-04-06T11:50:57;10.18;;;4.53;;
70505;SDS011;58032;49.820;6.274;2023-04-06T11:53:27;8.60;;;3.83;;
70505;SDS011;58032;49.820;6.274;2023-04-06T11:55:56;5.97;;;3.22;;
70505;SDS011;58032;49.820;6.274;2023-04-06T11:58:23;8.52;;;4.15;;
70505;SDS011;58032;49.820;6.274;2023-04-06T12:00:50;8.07;;;4.23;;
70505;SDS011;58032;49.820;6.274;2023-04-06T12:03:17;10.25;;;3.58;;
70505;SDS011;58032;49.820;6.274;2023-04-06T12:05:44;9.90;;;4.13;;
70505;SDS011;58032;49.820;6.274;2023-04-06T12:08:13;6.97;;;3.47;;
70505;SDS011;58032;49.820;6.274;2023-04-06T12:10:40;7.88;;;3.40;;
70505;SDS011;58032;49.820;6.274;2023-04-06T12:13:07;10.23;;;4.13;;
70505;SDS011;58032;49.820;6.274;2023-04-06T12:15:33;8.00;;;3.88;;
70505;SDS011;58032;49.820;6.274;2023-04-06T12:18:01;8.50;;;4.00;;
70505;SDS011;58032;49.820;6.274;2023-04-06T12:20:28;9.55;;;3.58;;
70505;SDS011;58032;49.820;6.274;2023-04-06T12:22:54;7.75;;;3.67;;
70505;SDS011;58032;49.820;6.274;2023-04-06T12:25:21;8.93;;;3.60;;
70505;SDS011;58032;49.820;6.274;2023-04-06T12:27:48;8.25;;;3.83;;
70505;SDS011;58032;49.820;6.274;2023-04-06T12:30:15;7.13;;;4.00;;
70505;SDS011;58032;49.820;6.274;2023-04-06T12:32:43;10.15;;;3.90;;
70505;SDS011;58032;49.820;6.274;2023-04-06T12:35:10;9.60;;;3.72;;
70505;SDS011;58032;49.820;6.274;2023-04-06T12:37:38;8.00;;;3.87;;
70505;SDS011;58032;49.820;6.274;2023-04-06T12:40:05;9.15;;;3.80;;
70505;SDS011;58032;49.820;6.274;2023-04-06T12:42:33;9.18;;;4.10;;
70505;SDS011;58032;49.820;6.274;2023-04-06T12:44:59;7.40;;;3.40;;
70505;SDS011;58032;49.820;6.274;2023-04-06T12:47:26;7.38;;;3.63;;
70505;SDS011;58032;49.820;6.274;2023-04-06T12:49:54;8.87;;;3.60;;
70505;SDS011;58032;49.820;6.274;2023-04-06T12:52:21;6.68;;;3.47;;
70505;SDS011;58032;49.820;6.274;2023-04-06T12:54:48;8.93;;;3.85;;
70505;SDS011;58032;49.820;6.274;2023-04-06T12:57:15;8.82;;;3.83;;
70505;SDS011;58032;49.820;6.274;2023-04-06T12:59:45;7.60;;;3.70;;
70505;SDS011;58032;49.820;6.274;2023-04-06T13:02:12;7.43;;;3.20;;
70505;SDS011;58032;49.820;6.274;2023-04-06T13:04:39;6.53;;;2.88;;
70505;SDS011;58032;49.820;6.274;2023-04-06T13:07:06;8.07;;;3.60;;
70505;SDS011;58032;49.820;6.274;2023-04-06T13:09:33;7.57;;;3.05;;
70505;SDS011;58032;49.820;6.274;2023-04-06T13:12:00;7.20;;;3.60;;
70505;SDS011;58032;49.820;6.274;2023-04-06T13:14:27;8.63;;;3.80;;
70505;SDS011;58032;49.820;6.274;2023-04-06T13:16:54;7.25;;;3.60;;
70505;SDS011;58032;49.820;6.274;2023-04-06T13:19:21;7.97;;;3.80;;
70505;SDS011;58032;49.820;6.274;2023-04-06T13:21:49;6.53;;;3.15;;
70505;SDS011;58032;49.820;6.274;2023-04-06T13:24:16;6.25;;;2.70;;
70505;SDS011;58032;49.820;6.274;2023-04-06T13:26:43;6.13;;;2.97;;
70505;SDS011;58032;49.820;6.274;2023-04-06T13:29:10;7.28;;;3.10;;
70505;SDS011;58032;49.820;6.274;2023-04-06T13:31:37;6.68;;;3.15;;
70505;SDS011;58032;49.820;6.274;2023-04-06T13:34:05;7.78;;;2.97;;
70505;SDS011;58032;49.820;6.274;2023-04-06T13:36:32;8.05;;;3.60;;
70505;SDS011;58032;49.820;6.274;2023-04-06T13:38:59;6.17;;;3.53;;
70505;SDS011;58032;49.820;6.274;2023-04-06T13:41:26;7.15;;;3.47;;
70505;SDS011;58032;49.820;6.274;2023-04-06T13:43:53;7.35;;;3.50;;
70505;SDS011;58032;49.820;6.274;2023-04-06T13:46:20;6.95;;;3.20;;
70505;SDS011;58032;49.820;6.274;2023-04-06T13:48:47;6.45;;;3.28;;
70505;SDS011;58032;49.820;6.274;2023-04-06T13:51:14;7.83;;;3.57;;
70505;SDS011;58032;49.820;6.274;2023-04-06T13:53:42;5.72;;;2.83;;
70505;SDS011;58032;49.820;6.274;2023-04-06T13:56:08;4.32;;;2.25;;
70505;SDS011;58032;49.820;6.274;2023-04-06T13:58:35;5.88;;;2.72;;
70505;SDS011;58032;49.820;6.274;2023-04-06T14:01:06;5.05;;;2.47;;
70505;SDS011;58032;49.820;6.274;2023-04-06T14:03:36;7.00;;;2.90;;
70505;SDS011;58032;49.820;6.274;2023-04-06T14:06:10;5.55;;;2.70;;
70505;SDS011;58032;49.820;6.274;2023-04-06T14:08:43;5.55;;;2.67;;
70505;SDS011;58032;49.820;6.274;2023-04-06T14:11:13;5.63;;;2.45;;
70505;SDS011;58032;49.820;6.274;2023-04-06T14:13:40;5.40;;;2.30;;
70505;SDS011;58032;49.820;6.274;2023-04-06T14:16:08;5.53;;;2.30;;
70505;SDS011;58032;49.820;6.274;2023-04-06T14:18:36;4.82;;;2.13;;
70505;SDS011;58032;49.820;6.274;2023-04-06T14:21:03;4.75;;;2.13;;
70505;SDS011;58032;49.820;6.274;2023-04-06T14:23:30;6.70;;;2.20;;
70505;SDS011;58032;49.820;6.274;2023-04-06T14:26:03;5.95;;;2.00;;
70505;SDS011;58032;49.820;6.274;2023-04-06T14:28:32;5.95;;;2.50;;
70505;SDS011;58032;49.820;6.274;2023-04-06T14:31:00;5.10;;;2.33;;
70505;SDS011;58032;49.820;6.274;2023-04-06T14:33:27;6.00;;;2.60;;
70505;SDS011;58032;49.820;6.274;2023-04-06T14:35:54;6.73;;;2.60;;
70505;SDS011;58032;49.820;6.274;2023-04-06T14:38:21;5.18;;;2.17;;
70505;SDS011;58032;49.820;6.274;2023-04-06T14:40:48;6.75;;;2.60;;
70505;SDS011;58032;49.820;6.274;2023-04-06T14:43:15;6.13;;;3.03;;
70505;SDS011;58032;49.820;6.274;2023-04-06T14:45:42;8.27;;;3.13;;
70505;SDS011;58032;49.820;6.274;2023-04-06T14:48:09;7.00;;;2.90;;
70505;SDS011;58032;49.820;6.274;2023-04-06T14:50:39;6.28;;;2.67;;
70505;SDS011;58032;49.820;6.274;2023-04-06T14:53:06;7.20;;;2.60;;
70505;SDS011;58032;49.820;6.274;2023-04-06T14:55:33;8.32;;;2.25;;
70505;SDS011;58032;49.820;6.274;2023-04-06T14:58:05;6.55;;;2.10;;
70505;SDS011;58032;49.820;6.274;2023-04-06T15:00:33;5.80;;;2.50;;
70505;SDS011;58032;49.820;6.274;2023-04-06T15:03:00;5.47;;;2.10;;
70505;SDS011;58032;49.820;6.274;2023-04-06T15:05:28;5.75;;;2.25;;
70505;SDS011;58032;49.820;6.274;2023-04-06T15:07:57;7.32;;;1.90;;